sensor_id;sensor_type;location;lat;lon;timestamp;P1;durP1;ratioP1;P2;durP2;ratioP2
2053;SDS011;1032;52.542;13.440;2022-10-16T00:00:25;3.73;;;3.37;;
2053;SDS011;1032;52.542;13.440;2022-10-16T00:02:51;6.37;;;4.43;;
2053;SDS011;1032;52.542;13.440;2022-10-16T00:05:18;7.50;;;4.20;;
2053;SDS011;1032;52.542;13.440;2022-10-16T00:07:44;5.83;;;4.10;;
2053;SDS011;1032;52.542;13.440;2022-10-16T00:10:11;3.50;;;3.10;;
2053;SDS011;1032;52.542;13.440;2022-10-16T00:12:38;3.90;;;3.50;;
2053;SDS011;1032;52.542;13.440;2022-10-16T00:15:06;3.40;;;3.10;;
2053;SDS011;1032;52.542;13.440;2022-10-16T00:17:33;4.50;;;3.23;;
2053;SDS011;1032;52.542;13.440;2022-10-16T00:20:00;4.77;;;3.27;;
2053;SDS011;1032;52.542;13.440;2022-10-16T00:22:26;4.50;;;2.93;;
2053;SDS011;1032;52.542;13.440;2022-10-16T00:24:53;3.23;;;2.93;;
2053;SDS011;1032;52.542;13.440;2022-10-16T00:27:20;4.17;;;2.90;;
2053;SDS011;1032;52.542;13.440;2022-10-16T00:29:49;3.30;;;3.03;;
2053;SDS011;1032;52.542;13.440;2022-10-16T00:32:17;4.20;;;2.43;;
2053;SDS011;1032;52.542;13.440;2022-10-16T00:34:44;3.23;;;2.80;;
2053;SDS011;1032;52.542;13.440;2022-10-16T00:37:10;4.40;;;2.90;;
2053;SDS011;1032;52.542;13.440;2022-10-16T00:39:37;3.70;;;3.30;;
2053;SDS011;1032;52.542;13.440;2022-10-16T00:42:04;3.30;;;2.97;;
2053;SDS011;1032;52.542;13.440;2022-10-16T00:44:44;7.60;;;4.00;;
2053;SDS011;1032;52.542;13.440;2022-10-16T00:47:15;4.77;;;4.03;;
2053;SDS011;1032;52.542;13.440;2022-10-16T00:49:48;3.70;;;3.10;;
2053;SDS011;1032;52.542;13.440;2022-10-16T00:52:16;4.60;;;3.33;;
2053;SDS011;1032;52.542;13.440;2022-10-16T00:54:44;6.50;;;4.00;;
2053;SDS011;1032;52.542;13.440;2022-10-16T00:57:12;3.10;;;2.80;;
2053;SDS011;1032;52.542;13.440;2022-10-16T00:59:40;2.57;;;2.37;;
2053;SDS011;1032;52.542;13.440;2022-10-16T01:02:09;2.47;;;2.27;;
2053;SDS011;1032;52.542;13.440;2022-10-16T01:04:42;4.33;;;2.63;;
2053;SDS011;1032;52.542;13.440;2022-10-16T01:07:13;2.60;;;2.40;;
2053;SDS011;1032;52.542;13.440;2022-10-16T01:09:51;5.10;;;2.33;;
2053;SDS011;1032;52.542;13.440;2022-10-16T01:12:30;2.70;;;2.30;;
2053;SDS011;1032;52.542;13.440;2022-10-16T01:15:06;3.87;;;3.03;;
2053;SDS011;1032;52.542;13.440;2022-10-16T01:17:40;2.40;;;2.20;;
2053;SDS011;1032;52.542;13.440;2022-10-16T01:20:13;3.33;;;2.20;;
2053;SDS011;1032;52.542;13.440;2022-10-16T01:22:50;3.57;;;3.00;;
2053;SDS011;1032;52.542;13.440;2022-10-16T01:25:29;5.27;;;2.30;;
2053;SDS011;1032;52.542;13.440;2022-10-16T01:28:03;4.07;;;2.77;;
2053;SDS011;1032;52.542;13.440;2022-10-16T01:30:34;5.50;;;2.60;;
2053;SDS011;1032;52.542;13.440;2022-10-16T01:33:02;2.67;;;2.47;;
2053;SDS011;1032;52.542;13.440;2022-10-16T01:35:36;2.30;;;2.10;;
2053;SDS011;1032;52.542;13.440;2022-10-16T01:38:05;3.30;;;2.43;;
2053;SDS011;1032;52.542;13.440;2022-10-16T01:40:36;2.60;;;2.00;;
2053;SDS011;1032;52.542;13.440;2022-10-16T01:43:08;5.73;;;2.40;;
2053;SDS011;1032;52.542;13.440;2022-10-16T01:45:38;4.83;;;2.63;;
2053;SDS011;1032;52.542;13.440;2022-10-16T01:48:07;2.97;;;2.30;;
2053;SDS011;1032;52.542;13.440;2022-10-16T01:50:38;2.73;;;2.10;;
2053;SDS011;1032;52.542;13.440;2022-10-16T01:53:08;5.10;;;2.17;;
2053;SDS011;1032;52.542;13.440;2022-10-16T01:55:39;3.83;;;2.87;;
2053;SDS011;1032;52.542;13.440;2022-10-16T01:58:11;6.07;;;2.70;;
2053;SDS011;1032;52.542;13.440;2022-10-16T02:00:40;3.10;;;2.20;;
2053;SDS011;1032;52.542;13.440;2022-10-16T02:03:11;3.43;;;2.90;;
2053;SDS011;1032;52.542;13.440;2022-10-16T02:05:41;7.70;;;2.50;;
2053;SDS011;1032;52.542;13.440;2022-10-16T02:08:11;2.60;;;2.40;;
2053;SDS011;1032;52.542;13.440;2022-10-16T02:10:38;3.20;;;2.90;;
2053;SDS011;1032;52.542;13.440;2022-10-16T02:13:06;2.93;;;2.40;;
2053;SDS011;1032;52.542;13.440;2022-10-16T02:15:38;3.80;;;2.87;;
2053;SDS011;1032;52.542;13.440;2022-10-16T02:18:05;3.07;;;2.40;;
2053;SDS011;1032;52.542;13.440;2022-10-16T02:20:34;7.13;;;2.67;;
2053;SDS011;1032;52.542;13.440;2022-10-16T02:23:05;4.27;;;2.30;;
2053;SDS011;1032;52.542;13.440;2022-10-16T02:25:36;3.50;;;2.57;;
2053;SDS011;1032;52.542;13.440;2022-10-16T02:28:06;2.80;;;2.00;;
2053;SDS011;1032;52.542;13.440;2022-10-16T02:30:40;3.33;;;2.10;;
2053;SDS011;1032;52.542;13.440;2022-10-16T02:33:12;3.57;;;2.33;;
2053;SDS011;1032;52.542;13.440;2022-10-16T02:35:41;4.10;;;3.00;;
2053;SDS011;1032;52.542;13.440;2022-10-16T02:38:09;4.03;;;2.67;;
2053;SDS011;1032;52.542;13.440;2022-10-16T02:40:37;2.93;;;2.53;;
2053;SDS011;1032;52.542;13.440;2022-10-16T02:43:04;2.83;;;2.10;;
2053;SDS011;1032;52.542;13.440;2022-10-16T02:45:31;2.50;;;1.93;;
2053;SDS011;1032;52.542;13.440;2022-10-16T02:47:59;2.23;;;2.03;;
2053;SDS011;1032;52.542;13.440;2022-10-16T02:50:26;2.57;;;2.20;;
2053;SDS011;1032;52.542;13.440;2022-10-16T02:52:53;3.03;;;2.20;;
2053;SDS011;1032;52.542;13.440;2022-10-16T02:55:19;2.13;;;1.90;;
2053;SDS011;1032;52.542;13.440;2022-10-16T02:57:46;3.30;;;1.90;;
2053;SDS011;1032;52.542;13.440;2022-10-16T03:00:14;2.37;;;2.17;;
2053;SDS011;1032;52.542;13.440;2022-10-16T03:02:42;3.20;;;1.93;;
2053;SDS011;1032;52.542;13.440;2022-10-16T03:05:11;2.63;;;1.90;;
2053;SDS011;1032;52.542;13.440;2022-10-16T03:07:38;3.90;;;2.27;;
2053;SDS011;1032;52.542;13.440;2022-10-16T03:10:05;3.13;;;2.00;;
2053;SDS011;1032;52.542;13.440;2022-10-16T03:12:32;3.13;;;1.90;;
2053;SDS011;1032;52.542;13.440;2022-10-16T03:14:59;2.40;;;2.20;;
2053;SDS011;1032;52.542;13.440;2022-10-16T03:17:25;5.13;;;2.00;;
2053;SDS011;1032;52.542;13.440;2022-10-16T03:19:52;2.10;;;1.53;;
2053;SDS011;1032;52.542;13.440;2022-10-16T03:22:20;2.80;;;2.17;;
2053;SDS011;1032;52.542;13.440;2022-10-16T03:24:46;3.40;;;3.10;;
2053;SDS011;1032;52.542;13.440;2022-10-16T03:27:13;2.47;;;1.97;;
2053;SDS011;1032;52.542;13.440;2022-10-16T03:29:39;3.10;;;2.23;;
2053;SDS011;1032;52.542;13.440;2022-10-16T03:32:06;2.90;;;2.13;;
2053;SDS011;1032;52.542;13.440;2022-10-16T03:34:33;2.27;;;1.90;;
2053;SDS011;1032;52.542;13.440;2022-10-16T03:36:59;4.83;;;2.47;;
2053;SDS011;1032;52.542;13.440;2022-10-16T03:39:27;3.67;;;2.00;;
2053;SDS011;1032;52.542;13.440;2022-10-16T03:41:54;2.60;;;2.40;;
2053;SDS011;1032;52.542;13.440;2022-10-16T03:44:21;3.67;;;2.63;;
2053;SDS011;1032;52.542;13.440;2022-10-16T03:46:47;3.20;;;2.57;;
2053;SDS011;1032;52.542;13.440;2022-10-16T03:49:14;3.77;;;2.80;;
2053;SDS011;1032;52.542;13.440;2022-10-16T03:51:40;4.97;;;2.90;;
2053;SDS011;1032;52.542;13.440;2022-10-16T03:54:07;5.80;;;3.03;;
2053;SDS011;1032;52.542;13.440;2022-10-16T03:56:35;3.20;;;2.80;;
2053;SDS011;1032;52.542;13.440;2022-10-16T03:59:01;2.43;;;2.23;;
2053;SDS011;1032;52.542;13.440;2022-10-16T04:01:28;4.43;;;2.67;;
2053;SDS011;1032;52.542;13.440;2022-10-16T04:03:55;4.57;;;2.70;;
2053;SDS011;1032;52.542;13.440;2022-10-16T04:06:21;4.77;;;3.60;;
2053;SDS011;1032;52.542;13.440;2022-10-16T04:08:48;4.47;;;2.70;;
2053;SDS011;1032;52.542;13.440;2022-10-16T04:11:14;3.70;;;3.10;;
2053;SDS011;1032;52.542;13.440;2022-10-16T04:13:42;3.30;;;3.00;;
2053;SDS011;1032;52.542;13.440;2022-10-16T04:16:09;3.30;;;3.00;;
2053;SDS011;1032;52.542;13.440;2022-10-16T04:18:36;3.30;;;2.97;;
2053;SDS011;1032;52.542;13.440;2022-10-16T04:21:03;4.70;;;2.87;;
2053;SDS011;1032;52.542;13.440;2022-10-16T04:23:30;3.73;;;3.00;;
2053;SDS011;1032;52.542;13.440;2022-10-16T04:25:56;4.20;;;3.40;;
2053;SDS011;1032;52.542;13.440;2022-10-16T04:28:23;3.33;;;3.00;;
2053;SDS011;1032;52.542;13.440;2022-10-16T04:30:51;3.80;;;2.77;;
2053;SDS011;1032;52.542;13.440;2022-10-16T04:33:18;3.27;;;2.60;;
2053;SDS011;1032;52.542;13.440;2022-10-16T04:35:44;5.47;;;2.63;;
2053;SDS011;1032;52.542;13.440;2022-10-16T04:38:11;4.13;;;2.63;;
2053;SDS011;1032;52.542;13.440;2022-10-16T04:40:37;2.67;;;2.47;;
2053;SDS011;1032;52.542;13.440;2022-10-16T04:43:04;9.13;;;3.13;;
2053;SDS011;1032;52.542;13.440;2022-10-16T04:45:32;3.17;;;2.87;;
2053;SDS011;1032;52.542;13.440;2022-10-16T04:48:00;4.17;;;2.60;;
2053;SDS011;1032;52.542;13.440;2022-10-16T04:50:26;2.60;;;2.30;;
2053;SDS011;1032;52.542;13.440;2022-10-16T04:53:04;4.33;;;2.60;;
2053;SDS011;1032;52.542;13.440;2022-10-16T04:55:30;2.97;;;2.40;;
2053;SDS011;1032;52.542;13.440;2022-10-16T04:57:57;5.60;;;3.03;;
2053;SDS011;1032;52.542;13.440;2022-10-16T05:00:23;3.70;;;2.63;;
2053;SDS011;1032;52.542;13.440;2022-10-16T05:02:50;3.50;;;2.80;;
2053;SDS011;1032;52.542;13.440;2022-10-16T05:05:18;3.13;;;2.83;;
2053;SDS011;1032;52.542;13.440;2022-10-16T05:07:45;3.43;;;2.60;;
2053;SDS011;1032;52.542;13.440;2022-10-16T05:10:12;6.80;;;3.43;;
2053;SDS011;1032;52.542;13.440;2022-10-16T05:12:38;4.17;;;3.40;;
2053;SDS011;1032;52.542;13.440;2022-10-16T05:15:05;3.60;;;3.03;;
2053;SDS011;1032;52.542;13.440;2022-10-16T05:17:33;4.10;;;3.70;;
2053;SDS011;1032;52.542;13.440;2022-10-16T05:19:59;4.53;;;4.03;;
2053;SDS011;1032;52.542;13.440;2022-10-16T05:22:27;4.50;;;4.10;;
2053;SDS011;1032;52.542;13.440;2022-10-16T05:24:54;3.20;;;2.90;;
2053;SDS011;1032;52.542;13.440;2022-10-16T05:27:21;3.83;;;3.20;;
2053;SDS011;1032;52.542;13.440;2022-10-16T05:29:48;3.17;;;2.80;;
2053;SDS011;1032;52.542;13.440;2022-10-16T05:32:15;3.83;;;2.70;;
2053;SDS011;1032;52.542;13.440;2022-10-16T05:34:43;3.50;;;3.20;;
2053;SDS011;1032;52.542;13.440;2022-10-16T05:37:10;3.13;;;2.67;;
2053;SDS011;1032;52.542;13.440;2022-10-16T05:39:39;3.03;;;2.50;;
2053;SDS011;1032;52.542;13.440;2022-10-16T05:42:06;6.33;;;3.20;;
2053;SDS011;1032;52.542;13.440;2022-10-16T05:44:33;5.20;;;3.30;;
2053;SDS011;1032;52.542;13.440;2022-10-16T05:46:59;3.73;;;3.23;;
2053;SDS011;1032;52.542;13.440;2022-10-16T05:49:26;3.23;;;3.03;;
2053;SDS011;1032;52.542;13.440;2022-10-16T05:51:53;3.40;;;3.10;;
2053;SDS011;1032;52.542;13.440;2022-10-16T05:54:19;6.50;;;3.70;;
2053;SDS011;1032;52.542;13.440;2022-10-16T05:56:47;3.20;;;2.50;;
2053;SDS011;1032;52.542;13.440;2022-10-16T05:59:14;3.20;;;2.90;;
2053;SDS011;1032;52.542;13.440;2022-10-16T06:01:40;4.93;;;3.27;;
2053;SDS011;1032;52.542;13.440;2022-10-16T06:04:07;5.03;;;3.10;;
2053;SDS011;1032;52.542;13.440;2022-10-16T06:06:34;4.40;;;4.00;;
2053;SDS011;1032;52.542;13.440;2022-10-16T06:09:01;3.47;;;3.17;;
2053;SDS011;1032;52.542;13.440;2022-10-16T06:11:29;3.87;;;3.17;;
2053;SDS011;1032;52.542;13.440;2022-10-16T06:13:59;5.93;;;3.63;;
2053;SDS011;1032;52.542;13.440;2022-10-16T06:16:31;4.03;;;3.10;;
2053;SDS011;1032;52.542;13.440;2022-10-16T06:18:58;6.20;;;3.53;;
2053;SDS011;1032;52.542;13.440;2022-10-16T06:21:25;3.50;;;3.20;;
2053;SDS011;1032;52.542;13.440;2022-10-16T06:23:53;3.60;;;3.17;;
2053;SDS011;1032;52.542;13.440;2022-10-16T06:26:22;4.60;;;3.70;;
2053;SDS011;1032;52.542;13.440;2022-10-16T06:28:50;3.30;;;3.00;;
2053;SDS011;1032;52.542;13.440;2022-10-16T06:31:18;4.07;;;3.10;;
2053;SDS011;1032;52.542;13.440;2022-10-16T06:33:44;3.87;;;3.23;;
2053;SDS011;1032;52.542;13.440;2022-10-16T06:36:12;5.50;;;3.23;;
2053;SDS011;1032;52.542;13.440;2022-10-16T06:38:40;4.53;;;3.60;;
2053;SDS011;1032;52.542;13.440;2022-10-16T06:41:09;4.50;;;3.17;;
2053;SDS011;1032;52.542;13.440;2022-10-16T06:43:37;3.03;;;2.80;;
2053;SDS011;1032;52.542;13.440;2022-10-16T06:46:04;3.50;;;2.60;;
2053;SDS011;1032;52.542;13.440;2022-10-16T06:48:34;3.60;;;3.30;;
2053;SDS011;1032;52.542;13.440;2022-10-16T06:51:01;3.67;;;3.37;;
2053;SDS011;1032;52.542;13.440;2022-10-16T06:53:30;4.40;;;2.93;;
2053;SDS011;1032;52.542;13.440;2022-10-16T06:56:05;7.00;;;3.00;;
2053;SDS011;1032;52.542;13.440;2022-10-16T06:58:33;4.03;;;3.43;;
2053;SDS011;1032;52.542;13.440;2022-10-16T07:00:59;4.70;;;3.40;;
2053;SDS011;1032;52.542;13.440;2022-10-16T07:03:26;3.63;;;3.33;;
2053;SDS011;1032;52.542;13.440;2022-10-16T07:05:54;3.60;;;3.00;;
2053;SDS011;1032;52.542;13.440;2022-10-16T07:08:21;3.43;;;2.97;;
2053;SDS011;1032;52.542;13.440;2022-10-16T07:10:47;3.40;;;3.10;;
2053;SDS011;1032;52.542;13.440;2022-10-16T07:13:14;3.50;;;3.20;;
2053;SDS011;1032;52.542;13.440;2022-10-16T07:15:41;3.23;;;2.40;;
2053;SDS011;1032;52.542;13.440;2022-10-16T07:18:07;3.77;;;2.30;;
2053;SDS011;1032;52.542;13.440;2022-10-16T07:20:34;2.97;;;2.73;;
2053;SDS011;1032;52.542;13.440;2022-10-16T07:23:03;3.87;;;2.67;;
2053;SDS011;1032;52.542;13.440;2022-10-16T07:25:30;3.17;;;2.80;;
2053;SDS011;1032;52.542;13.440;2022-10-16T07:27:56;2.90;;;2.60;;
2053;SDS011;1032;52.542;13.440;2022-10-16T07:30:23;3.50;;;2.70;;
2053;SDS011;1032;52.542;13.440;2022-10-16T07:32:50;3.20;;;2.57;;
2053;SDS011;1032;52.542;13.440;2022-10-16T07:35:16;2.30;;;2.10;;
2053;SDS011;1032;52.542;13.440;2022-10-16T07:37:44;3.70;;;2.77;;
2053;SDS011;1032;52.542;13.440;2022-10-16T07:40:12;4.30;;;2.27;;
2053;SDS011;1032;52.542;13.440;2022-10-16T07:42:39;3.07;;;2.57;;
2053;SDS011;1032;52.542;13.440;2022-10-16T07:45:06;5.00;;;3.07;;
2053;SDS011;1032;52.542;13.440;2022-10-16T07:47:33;3.10;;;2.80;;
2053;SDS011;1032;52.542;13.440;2022-10-16T07:49:59;7.07;;;2.97;;
2053;SDS011;1032;52.542;13.440;2022-10-16T07:52:26;4.43;;;3.10;;
2053;SDS011;1032;52.542;13.440;2022-10-16T07:54:53;7.40;;;2.40;;
2053;SDS011;1032;52.542;13.440;2022-10-16T07:57:20;3.07;;;2.50;;
2053;SDS011;1032;52.542;13.440;2022-10-16T07:59:47;3.90;;;2.40;;
2053;SDS011;1032;52.542;13.440;2022-10-16T08:02:14;4.73;;;2.27;;
2053;SDS011;1032;52.542;13.440;2022-10-16T08:04:41;4.27;;;2.20;;
2053;SDS011;1032;52.542;13.440;2022-10-16T08:07:07;2.80;;;2.60;;
2053;SDS011;1032;52.542;13.440;2022-10-16T08:09:34;2.93;;;2.30;;
2053;SDS011;1032;52.542;13.440;2022-10-16T08:12:01;3.60;;;2.93;;
2053;SDS011;1032;52.542;13.440;2022-10-16T08:14:30;5.10;;;2.27;;
2053;SDS011;1032;52.542;13.440;2022-10-16T08:16:57;11.23;;;3.30;;
2053;SDS011;1032;52.542;13.440;2022-10-16T08:19:23;2.93;;;2.10;;
2053;SDS011;1032;52.542;13.440;2022-10-16T08:21:50;2.70;;;2.50;;
2053;SDS011;1032;52.542;13.440;2022-10-16T08:24:16;3.23;;;2.97;;
2053;SDS011;1032;52.542;13.440;2022-10-16T08:26:43;3.43;;;3.03;;
2053;SDS011;1032;52.542;13.440;2022-10-16T08:29:10;2.47;;;2.00;;
2053;SDS011;1032;52.542;13.440;2022-10-16T08:31:38;2.53;;;1.93;;
2053;SDS011;1032;52.542;13.440;2022-10-16T08:34:05;5.13;;;2.23;;
2053;SDS011;1032;52.542;13.440;2022-10-16T08:36:31;4.80;;;2.63;;
2053;SDS011;1032;52.542;13.440;2022-10-16T08:38:58;2.77;;;2.50;;
2053;SDS011;1032;52.542;13.440;2022-10-16T08:41:34;3.70;;;2.40;;
2053;SDS011;1032;52.542;13.440;2022-10-16T08:44:31;6.33;;;2.20;;
2053;SDS011;1032;52.542;13.440;2022-10-16T08:47:12;2.73;;;2.07;;
2053;SDS011;1032;52.542;13.440;2022-10-16T08:49:45;3.30;;;2.37;;
2053;SDS011;1032;52.542;13.440;2022-10-16T08:52:21;3.53;;;1.90;;
2053;SDS011;1032;52.542;13.440;2022-10-16T08:54:49;3.57;;;2.07;;
2053;SDS011;1032;52.542;13.440;2022-10-16T08:57:19;2.53;;;1.87;;
2053;SDS011;1032;52.542;13.440;2022-10-16T08:59:47;24.43;;;4.47;;
2053;SDS011;1032;52.542;13.440;2022-10-16T09:02:20;8.33;;;2.87;;
2053;SDS011;1032;52.542;13.440;2022-10-16T09:04:54;2.90;;;2.20;;
2053;SDS011;1032;52.542;13.440;2022-10-16T09:07:30;18.67;;;5.03;;
2053;SDS011;1032;52.542;13.440;2022-10-16T09:10:09;4.27;;;2.50;;
2053;SDS011;1032;52.542;13.440;2022-10-16T09:12:48;5.17;;;2.40;;
2053;SDS011;1032;52.542;13.440;2022-10-16T09:15:23;4.80;;;2.07;;
2053;SDS011;1032;52.542;13.440;2022-10-16T09:17:58;2.40;;;1.77;;
2053;SDS011;1032;52.542;13.440;2022-10-16T09:20:32;3.03;;;2.03;;
2053;SDS011;1032;52.542;13.440;2022-10-16T09:23:14;2.80;;;2.00;;
2053;SDS011;1032;52.542;13.440;2022-10-16T09:25:43;2.53;;;2.00;;
2053;SDS011;1032;52.542;13.440;2022-10-16T09:28:13;4.83;;;1.80;;
2053;SDS011;1032;52.542;13.440;2022-10-16T09:30:41;4.23;;;2.23;;
2053;SDS011;1032;52.542;13.440;2022-10-16T09:33:10;6.13;;;2.13;;
2053;SDS011;1032;52.542;13.440;2022-10-16T09:35:39;4.53;;;2.50;;
2053;SDS011;1032;52.542;13.440;2022-10-16T09:38:07;2.87;;;2.30;;
2053;SDS011;1032;52.542;13.440;2022-10-16T09:40:35;3.07;;;2.40;;
2053;SDS011;1032;52.542;13.440;2022-10-16T09:43:09;3.50;;;2.17;;
2053;SDS011;1032;52.542;13.440;2022-10-16T09:45:53;2.90;;;1.93;;
2053;SDS011;1032;52.542;13.440;2022-10-16T09:48:22;4.40;;;2.10;;
2053;SDS011;1032;52.542;13.440;2022-10-16T09:50:57;3.43;;;2.03;;
2053;SDS011;1032;52.542;13.440;2022-10-16T09:53:26;2.17;;;1.60;;
2053;SDS011;1032;52.542;13.440;2022-10-16T09:56:04;2.50;;;1.83;;
2053;SDS011;1032;52.542;13.440;2022-10-16T09:58:32;2.23;;;1.50;;
2053;SDS011;1032;52.542;13.440;2022-10-16T10:00:59;2.83;;;2.07;;
2053;SDS011;1032;52.542;13.440;2022-10-16T10:03:37;2.70;;;1.77;;
2053;SDS011;1032;52.542;13.440;2022-10-16T10:06:07;10.40;;;2.63;;
2053;SDS011;1032;52.542;13.440;2022-10-16T10:11:36;2.80;;;1.93;;
2053;SDS011;1032;52.542;13.440;2022-10-16T10:14:09;8.37;;;1.87;;
2053;SDS011;1032;52.542;13.440;2022-10-16T10:16:44;3.93;;;1.70;;
2053;SDS011;1032;52.542;13.440;2022-10-16T10:19:14;3.83;;;1.97;;
2053;SDS011;1032;52.542;13.440;2022-10-16T10:21:42;4.80;;;1.80;;
2053;SDS011;1032;52.542;13.440;2022-10-16T10:24:10;6.43;;;1.77;;
2053;SDS011;1032;52.542;13.440;2022-10-16T10:26:38;3.20;;;1.97;;
2053;SDS011;1032;52.542;13.440;2022-10-16T10:29:08;3.50;;;2.20;;
2053;SDS011;1032;52.542;13.440;2022-10-16T10:31:44;2.47;;;1.80;;
2053;SDS011;1032;52.542;13.440;2022-10-16T10:34:19;4.47;;;1.43;;
2053;SDS011;1032;52.542;13.440;2022-10-16T10:36:58;2.60;;;1.83;;
2053;SDS011;1032;52.542;13.440;2022-10-16T10:39:30;3.43;;;1.70;;
2053;SDS011;1032;52.542;13.440;2022-10-16T10:42:05;1.80;;;1.30;;
2053;SDS011;1032;52.542;13.440;2022-10-16T10:44:46;1.53;;;1.20;;
2053;SDS011;1032;52.542;13.440;2022-10-16T10:47:28;2.43;;;1.50;;
2053;SDS011;1032;52.542;13.440;2022-10-16T10:50:07;2.20;;;1.87;;
2053;SDS011;1032;52.542;13.440;2022-10-16T10:52:47;1.83;;;1.33;;
2053;SDS011;1032;52.542;13.440;2022-10-16T10:55:25;1.80;;;1.60;;
2053;SDS011;1032;52.542;13.440;2022-10-16T10:58:07;3.43;;;1.40;;
2053;SDS011;1032;52.542;13.440;2022-10-16T11:00:48;2.40;;;1.37;;
2053;SDS011;1032;52.542;13.440;2022-10-16T11:03:27;3.67;;;1.87;;
2053;SDS011;1032;52.542;13.440;2022-10-16T11:06:09;1.47;;;1.37;;
2053;SDS011;1032;52.542;13.440;2022-10-16T11:08:39;2.80;;;2.00;;
2053;SDS011;1032;52.542;13.440;2022-10-16T11:11:11;3.73;;;3.33;;
2053;SDS011;1032;52.542;13.440;2022-10-16T11:13:43;3.70;;;2.47;;
2053;SDS011;1032;52.542;13.440;2022-10-16T11:16:20;1.93;;;1.20;;
2053;SDS011;1032;52.542;13.440;2022-10-16T11:18:51;5.27;;;1.90;;
2053;SDS011;1032;52.542;13.440;2022-10-16T11:21:24;5.43;;;1.80;;
2053;SDS011;1032;52.542;13.440;2022-10-16T11:23:53;3.60;;;2.07;;
2053;SDS011;1032;52.542;13.440;2022-10-16T11:26:26;1.83;;;1.20;;
2053;SDS011;1032;52.542;13.440;2022-10-16T11:28:56;2.57;;;1.27;;
2053;SDS011;1032;52.542;13.440;2022-10-16T11:31:26;4.80;;;1.50;;
2053;SDS011;1032;52.542;13.440;2022-10-16T11:33:59;6.73;;;1.90;;
2053;SDS011;1032;52.542;13.440;2022-10-16T11:36:33;6.17;;;1.57;;
2053;SDS011;1032;52.542;13.440;2022-10-16T11:39:08;2.90;;;1.43;;
2053;SDS011;1032;52.542;13.440;2022-10-16T11:41:50;2.60;;;1.60;;
2053;SDS011;1032;52.542;13.440;2022-10-16T11:44:22;4.73;;;1.60;;
2053;SDS011;1032;52.542;13.440;2022-10-16T11:46:59;4.50;;;1.87;;
2053;SDS011;1032;52.542;13.440;2022-10-16T11:49:34;2.30;;;1.30;;
2053;SDS011;1032;52.542;13.440;2022-10-16T11:52:06;3.60;;;1.30;;
2053;SDS011;1032;52.542;13.440;2022-10-16T11:54:40;2.97;;;1.60;;
2053;SDS011;1032;52.542;13.440;2022-10-16T11:57:14;4.90;;;1.47;;
2053;SDS011;1032;52.542;13.440;2022-10-16T11:59:46;4.50;;;1.90;;
2053;SDS011;1032;52.542;13.440;2022-10-16T12:02:28;2.90;;;1.23;;
2053;SDS011;1032;52.542;13.440;2022-10-16T12:05:04;13.13;;;2.50;;
2053;SDS011;1032;52.542;13.440;2022-10-16T12:07:41;8.33;;;2.10;;
2053;SDS011;1032;52.542;13.440;2022-10-16T12:10:18;5.40;;;1.80;;
2053;SDS011;1032;52.542;13.440;2022-10-16T12:12:48;2.40;;;1.30;;
2053;SDS011;1032;52.542;13.440;2022-10-16T12:15:20;2.23;;;0.90;;
2053;SDS011;1032;52.542;13.440;2022-10-16T12:17:49;3.97;;;1.63;;
2053;SDS011;1032;52.542;13.440;2022-10-16T12:20:21;6.97;;;5.57;;
2053;SDS011;1032;52.542;13.440;2022-10-16T12:22:53;3.40;;;1.63;;
2053;SDS011;1032;52.542;13.440;2022-10-16T12:25:21;2.20;;;1.40;;
2053;SDS011;1032;52.542;13.440;2022-10-16T12:30:51;5.43;;;2.40;;
2053;SDS011;1032;52.542;13.440;2022-10-16T12:33:20;5.80;;;4.87;;
2053;SDS011;1032;52.542;13.440;2022-10-16T12:35:49;6.50;;;1.93;;
2053;SDS011;1032;52.542;13.440;2022-10-16T12:38:18;3.50;;;1.10;;
2053;SDS011;1032;52.542;13.440;2022-10-16T12:40:53;2.40;;;1.40;;
2053;SDS011;1032;52.542;13.440;2022-10-16T12:43:25;1.40;;;1.00;;
2053;SDS011;1032;52.542;13.440;2022-10-16T12:46:04;2.70;;;1.80;;
2053;SDS011;1032;52.542;13.440;2022-10-16T12:48:46;5.13;;;2.40;;
2053;SDS011;1032;52.542;13.440;2022-10-16T12:51:21;3.07;;;1.90;;
2053;SDS011;1032;52.542;13.440;2022-10-16T12:53:58;3.40;;;1.60;;
2053;SDS011;1032;52.542;13.440;2022-10-16T12:56:27;2.20;;;1.00;;
2053;SDS011;1032;52.542;13.440;2022-10-16T12:59:06;2.40;;;1.00;;
2053;SDS011;1032;52.542;13.440;2022-10-16T13:01:42;5.03;;;1.30;;
2053;SDS011;1032;52.542;13.440;2022-10-16T13:04:39;5.30;;;1.33;;
2053;SDS011;1032;52.542;13.440;2022-10-16T13:07:23;2.30;;;1.40;;
2053;SDS011;1032;52.542;13.440;2022-10-16T13:10:08;2.53;;;1.10;;
2053;SDS011;1032;52.542;13.440;2022-10-16T13:12:46;2.33;;;1.10;;
2053;SDS011;1032;52.542;13.440;2022-10-16T13:15:28;2.80;;;1.10;;
2053;SDS011;1032;52.542;13.440;2022-10-16T13:18:10;2.40;;;1.70;;
2053;SDS011;1032;52.542;13.440;2022-10-16T13:20:50;1.70;;;1.17;;
2053;SDS011;1032;52.542;13.440;2022-10-16T13:23:25;2.50;;;1.20;;
2053;SDS011;1032;52.542;13.440;2022-10-16T13:26:03;1.90;;;0.90;;
2053;SDS011;1032;52.542;13.440;2022-10-16T13:28:37;2.87;;;1.83;;
2053;SDS011;1032;52.542;13.440;2022-10-16T13:31:04;2.73;;;1.30;;
2053;SDS011;1032;52.542;13.440;2022-10-16T13:33:32;2.00;;;1.30;;
2053;SDS011;1032;52.542;13.440;2022-10-16T13:36:01;5.50;;;1.40;;
2053;SDS011;1032;52.542;13.440;2022-10-16T13:38:29;2.73;;;1.67;;
2053;SDS011;1032;52.542;13.440;2022-10-16T13:40:58;3.80;;;1.40;;
2053;SDS011;1032;52.542;13.440;2022-10-16T13:43:28;2.53;;;1.57;;
2053;SDS011;1032;52.542;13.440;2022-10-16T13:45:59;4.03;;;1.80;;
2053;SDS011;1032;52.542;13.440;2022-10-16T13:48:28;3.27;;;1.80;;
2053;SDS011;1032;52.542;13.440;2022-10-16T13:51:00;3.00;;;1.23;;
2053;SDS011;1032;52.542;13.440;2022-10-16T13:53:29;2.93;;;1.23;;
2053;SDS011;1032;52.542;13.440;2022-10-16T13:55:57;2.47;;;1.40;;
2053;SDS011;1032;52.542;13.440;2022-10-16T13:58:25;7.30;;;1.80;;
2053;SDS011;1032;52.542;13.440;2022-10-16T14:00:54;3.10;;;1.20;;
2053;SDS011;1032;52.542;13.440;2022-10-16T14:03:22;3.30;;;1.30;;
2053;SDS011;1032;52.542;13.440;2022-10-16T14:05:52;1.93;;;1.13;;
2053;SDS011;1032;52.542;13.440;2022-10-16T14:08:21;2.10;;;1.57;;
2053;SDS011;1032;52.542;13.440;2022-10-16T14:10:49;3.33;;;1.20;;
2053;SDS011;1032;52.542;13.440;2022-10-16T14:13:18;2.27;;;1.10;;
2053;SDS011;1032;52.542;13.440;2022-10-16T14:15:49;2.67;;;1.23;;
2053;SDS011;1032;52.542;13.440;2022-10-16T14:18:20;3.83;;;1.33;;
2053;SDS011;1032;52.542;13.440;2022-10-16T14:20:49;4.53;;;1.57;;
2053;SDS011;1032;52.542;13.440;2022-10-16T14:23:19;2.27;;;1.27;;
2053;SDS011;1032;52.542;13.440;2022-10-16T14:25:47;5.70;;;2.10;;
2053;SDS011;1032;52.542;13.440;2022-10-16T14:28:15;4.30;;;2.57;;
2053;SDS011;1032;52.542;13.440;2022-10-16T14:30:51;3.67;;;1.80;;
2053;SDS011;1032;52.542;13.440;2022-10-16T14:33:22;3.20;;;1.80;;
2053;SDS011;1032;52.542;13.440;2022-10-16T14:36:00;2.53;;;2.00;;
2053;SDS011;1032;52.542;13.440;2022-10-16T14:38:29;3.03;;;1.50;;
2053;SDS011;1032;52.542;13.440;2022-10-16T14:40:56;4.97;;;1.30;;
2053;SDS011;1032;52.542;13.440;2022-10-16T14:43:26;2.53;;;1.67;;
2053;SDS011;1032;52.542;13.440;2022-10-16T14:45:58;2.63;;;2.13;;
2053;SDS011;1032;52.542;13.440;2022-10-16T14:48:26;5.13;;;1.70;;
2053;SDS011;1032;52.542;13.440;2022-10-16T14:50:53;7.60;;;2.33;;
2053;SDS011;1032;52.542;13.440;2022-10-16T14:53:20;2.90;;;1.47;;
2053;SDS011;1032;52.542;13.440;2022-10-16T14:55:46;2.60;;;1.50;;
2053;SDS011;1032;52.542;13.440;2022-10-16T14:58:14;2.57;;;1.20;;
2053;SDS011;1032;52.542;13.440;2022-10-16T15:00:42;4.53;;;1.90;;
2053;SDS011;1032;52.542;13.440;2022-10-16T15:03:09;4.63;;;1.73;;
2053;SDS011;1032;52.542;13.440;2022-10-16T15:05:37;3.27;;;1.77;;
2053;SDS011;1032;52.542;13.440;2022-10-16T15:08:04;4.63;;;2.20;;
2053;SDS011;1032;52.542;13.440;2022-10-16T15:10:31;3.63;;;1.47;;
2053;SDS011;1032;52.542;13.440;2022-10-16T15:13:01;6.70;;;4.00;;
2053;SDS011;1032;52.542;13.440;2022-10-16T15:15:33;7.37;;;2.10;;
2053;SDS011;1032;52.542;13.440;2022-10-16T15:18:01;2.70;;;1.63;;
2053;SDS011;1032;52.542;13.440;2022-10-16T15:20:28;2.53;;;1.67;;
2053;SDS011;1032;52.542;13.440;2022-10-16T15:23:00;2.17;;;1.53;;